Time;durP1;ratioP1;P1;durP2;ratioP2;P2;SDS_P1;SDS_P2;PMS_P1;PMS_P2;Temp;Humidity;BMP_temperature;BMP_pressure;BME280_temperature;BME280_humidity;BME280_pressure;Samples;Min_cycle;Max_cycle;Signal;HPM_P1;HPM_P2
2022/05/25 00:02:04;;;;;;;6.80;3.50;;;;;;;11.78;75.91;101165.22;5033596;28;20072;-61
2022/05/25 00:04:29;;;;;;;5.53;3.70;;;;;;;11.73;76.44;101164.28;5033444;28;20030;-61
2022/05/25 00:06:55;;;;;;;5.60;3.88;;;;;;;11.71;76.15;101168.66;5033263;28;20433;-61
2022/05/25 00:09:21;;;;;;;5.80;3.70;;;;;;;11.72;77.15;101174.84;5015627;28;20022;-61
2022/05/25 00:11:47;;;;;;;6.43;4.20;;;;;;;11.78;76.35;101173.16;5033346;28;20454;-61
2022/05/25 00:14:12;;;;;;;7.32;4.00;;;;;;;11.87;76.46;101174.19;5033245;28;20021;-61
2022/05/25 00:16:38;;;;;;;11.90;4.47;;;;;;;11.91;76.49;101179.53;5033150;28;20041;-61
2022/05/25 00:21:47;;;;;;;9.10;3.90;;;;;;;11.93;76.03;101174.22;5032941;28;20120;-61
2022/05/25 00:24:13;;;;;;;7.45;4.15;;;;;;;11.97;75.59;101171.63;5033139;28;20022;-62
2022/05/25 00:26:38;;;;;;;5.80;4.20;;;;;;;11.95;75.78;101170.75;5033157;28;20030;-62
2022/05/25 00:29:04;;;;;;;6.53;4.13;;;;;;;11.90;75.03;101184.78;5033003;28;20426;-62
2022/05/25 00:31:30;;;;;;;7.20;4.00;;;;;;;11.84;75.57;101177.66;5033073;28;20025;-62
2022/05/25 00:33:56;;;;;;;6.90;4.45;;;;;;;11.80;75.64;101183.78;5033335;28;20025;-61
2022/05/25 00:36:22;;;;;;;7.07;4.45;;;;;;;11.76;75.92;101177.53;5032896;28;20080;-61
2022/05/25 00:38:47;;;;;;;7.60;4.40;;;;;;;11.83;75.92;101182.97;5033028;28;20391;-61
2022/05/25 00:41:12;;;;;;;5.50;4.03;;;;;;;11.75;75.65;101178.44;5033099;28;20068;-61
2022/05/25 00:43:38;;;;;;;6.43;4.18;;;;;;;11.69;75.71;101172.16;5033072;28;20368;-62
2022/05/25 00:46:15;;;;;;;7.28;4.40;;;;;;;11.60;76.66;101182.63;5032891;28;20537;-61
2022/05/25 00:48:44;;;;;;;8.32;4.70;;;;;;;11.59;76.24;101188.81;5036305;28;20030;-61
2022/05/25 00:51:22;;;;;;;7.13;4.55;;;;;;;11.54;76.81;101180.81;5036746;28;20029;-61
2022/05/25 00:54:13;;;;;;;7.10;4.78;;;;;;;11.62;76.31;101187.09;5019210;28;20040;-61
2022/05/25 00:56:43;;;;;;;8.57;4.72;;;;;;;11.59;76.58;101191.47;5036830;28;20033;-62
2022/05/25 00:59:12;;;;;;;11.52;4.97;;;;;;;11.60;76.75;101195.88;5036645;28;20391;-61
2022/05/25 01:01:38;;;;;;;7.18;4.63;;;;;;;11.65;76.67;101192.44;5036702;28;20029;-61
2022/05/25 01:04:04;;;;;;;7.85;4.72;;;;;;;11.68;76.59;101197.75;5036754;28;20501;-61
2022/05/25 01:06:52;;;;;;;9.02;4.88;;;;;;;11.68;75.86;101210.09;5036781;28;20065;-61
2022/05/25 01:09:23;;;;;;;6.43;4.90;;;;;;;11.63;75.95;101204.75;5036604;28;20029;-61
2022/05/25 01:12:13;;;;;;;11.50;5.30;;;;;;;11.67;76.24;101210.97;5036631;28;20096;-61
2022/05/25 01:14:52;;;;;;;9.25;5.40;;;;;;;11.60;76.71;101211.75;5036448;28;20117;-61
2022/05/25 01:17:43;;;;;;;8.38;5.20;;;;;;;11.56;77.15;101207.28;5036493;28;20030;-61
2022/05/25 01:20:16;;;;;;;9.30;5.22;;;;;;;11.48;77.40;101205.47;5036440;28;20131;-61
2022/05/25 01:22:51;;;;;;;8.52;5.65;;;;;;;11.38;77.42;101207.94;5036096;28;20029;-61
2022/05/25 01:25:34;;;;;;;8.27;5.10;;;;;;;11.29;77.74;101204.31;5036303;28;20063;-61
2022/05/25 01:28:21;;;;;;;7.50;5.30;;;;;;;11.28;78.35;101212.25;5036299;28;20033;-62
2022/05/25 01:30:51;;;;;;;10.43;5.70;;;;;;;11.14;78.86;101201.47;5036242;28;20060;-62
2022/05/25 01:33:40;;;;;;;10.35;6.43;;;;;;;11.18;79.08;101210.34;5036057;28;20018;-62
2022/05/25 01:36:20;;;;;;;8.77;5.78;;;;;;;11.13;79.63;101212.91;5036353;28;20064;-61
2022/05/25 01:39:08;;;;;;;10.43;6.18;;;;;;;11.20;79.07;101216.53;5036167;28;20088;-61
2022/05/25 01:41:50;;;;;;;9.75;5.72;;;;;;;11.24;78.67;101215.72;5035994;28;20112;-62
2022/05/25 01:44:17;;;;;;;8.57;6.38;;;;;;;11.34;78.60;101214.06;5036061;28;20033;-61
2022/05/25 01:47:04;;;;;;;8.80;6.18;;;;;;;11.34;78.33;101217.59;5035925;28;20052;-61
2022/05/25 01:49:38;;;;;;;7.20;5.80;;;;;;;11.26;78.74;101217.53;5035890;28;20022;-61
2022/05/25 01:52:08;;;;;;;10.23;6.00;;;;;;;11.26;78.67;101216.59;5035612;28;20475;-61
2022/05/25 01:54:36;;;;;;;8.63;6.25;;;;;;;11.27;79.06;101221.06;5018054;28;20021;-61
2022/05/25 01:57:07;;;;;;;8.25;6.20;;;;;;;11.24;78.75;101219.25;5035827;28;20088;-61
2022/05/25 01:59:33;;;;;;;9.77;6.00;;;;;;;11.22;79.23;101217.44;5035700;28;20475;-61
2022/05/25 02:04:48;;;;;;;9.98;6.35;;;;;;;11.04;79.95;101218.94;5035828;28;20184;-62
2022/05/25 02:07:32;;;;;;;8.25;6.57;;;;;;;11.07;79.37;101222.50;5035569;28;20025;-61
2022/05/25 02:10:15;;;;;;;8.05;6.63;;;;;;;10.97;80.21;101221.50;5035495;28;20458;-61
2022/05/25 02:12:49;;;;;;;10.23;6.13;;;;;;;10.95;80.13;101217.94;5035619;28;20025;-61
2022/05/25 02:15:33;;;;;;;8.88;5.88;;;;;;;11.00;79.38;101221.53;5035376;28;20034;-61
2022/05/25 02:18:21;;;;;;;8.85;6.22;;;;;;;10.96;79.79;101225.91;5035044;28;20116;-61
2022/05/25 02:21:10;;;;;;;9.05;6.50;;;;;;;10.94;80.21;101227.63;5035184;28;20037;-61
2022/05/25 02:23:50;;;;;;;10.50;6.30;;;;;;;10.89;80.04;101225.78;5035161;28;20434;-61
2022/05/25 02:26:18;;;;;;;9.73;6.47;;;;;;;10.85;80.41;101222.19;5035214;28;20415;-62
2022/05/25 02:28:49;;;;;;;10.25;6.00;;;;;;;10.85;79.91;101224.84;5035163;28;20534;-61
2022/05/25 02:31:23;;;;;;;8.05;6.00;;;;;;;10.83;80.51;101231.84;5035033;28;20029;-61
2022/05/25 02:33:53;;;;;;;9.93;6.90;;;;;;;10.80;80.42;101231.81;5035017;28;20037;-63
2022/05/25 02:36:20;;;;;;;13.65;7.05;;;;;;;10.76;80.49;101238.78;5034987;28;20044;-62
2022/05/25 02:38:47;;;;;;;10.98;7.07;;;;;;;10.81;80.71;101232.69;5034916;28;20049;-62
2022/05/25 02:41:32;;;;;;;9.77;6.28;;;;;;;10.90;79.78;101235.47;5034855;28;20026;-61
2022/05/25 02:43:59;;;;;;;9.40;6.50;;;;;;;10.93;80.09;101241.72;5034899;28;20060;-61
2022/05/25 02:46:25;;;;;;;8.15;5.57;;;;;;;10.98;79.85;101240.03;5034707;28;20032;-62
2022/05/25 02:48:51;;;;;;;9.85;6.15;;;;;;;10.95;79.49;101239.97;5034897;28;20100;-62
2022/05/25 02:51:17;;;;;;;8.35;5.68;;;;;;;10.97;79.75;101248.81;5034863;28;20060;-62
2022/05/25 02:53:46;;;;;;;8.00;5.88;;;;;;;10.90;79.37;101241.66;5034637;28;20045;-62
2022/05/25 02:56:11;;;;;;;9.02;5.88;;;;;;;10.90;79.38;101248.69;5034703;28;20105;-61
2022/05/25 02:58:37;;;;;;;11.15;6.10;;;;;;;10.88;79.44;101248.69;5034850;28;20109;-62
2022/05/25 03:01:04;;;;;;;10.73;6.00;;;;;;;10.87;79.73;101253.94;5034577;28;20053;-62
2022/05/25 03:03:32;;;;;;;8.93;5.55;;;;;;;10.84;79.41;101257.44;5034311;28;20080;-61
2022/05/25 03:05:57;;;;;;;8.75;5.00;;;;;;;10.81;79.37;101248.56;5034517;28;20100;-62
2022/05/25 03:08:23;;;;;;;7.50;5.40;;;;;;;10.84;79.82;101262.72;5034340;28;20514;-61
2022/05/25 03:10:48;;;;;;;7.78;5.38;;;;;;;10.83;79.63;101262.66;5033710;28;20471;-61
2022/05/25 03:13:13;;;;;;;9.25;5.25;;;;;;;10.77;80.33;101266.13;5034447;28;20112;-61
2022/05/25 03:15:39;;;;;;;10.23;5.38;;;;;;;10.71;80.17;101266.91;5034215;28;20497;-61
2022/05/25 03:18:05;;;;;;;8.02;5.32;;;;;;;10.66;80.33;101267.69;5033964;28;20034;-61
2022/05/25 03:20:31;;;;;;;7.47;5.15;;;;;;;10.65;80.23;101265.91;5034147;28;20021;-61
2022/05/25 03:22:56;;;;;;;13.80;5.57;;;;;;;10.63;80.01;101268.53;5034101;28;20098;-61
2022/05/25 03:25:22;;;;;;;9.55;5.43;;;;;;;10.68;79.82;101269.50;5034202;28;20047;-61
2022/05/25 03:27:47;;;;;;;10.13;5.35;;;;;;;10.65;79.78;101257.97;5033966;28;20025;-62
2022/05/25 03:30:15;;;;;;;8.80;5.22;;;;;;;10.61;80.35;101259.66;5033810;28;20037;-62
2022/05/25 03:32:41;;;;;;;10.30;5.50;;;;;;;10.61;80.80;101270.25;5033063;28;20041;-61
2022/05/25 03:35:07;;;;;;;11.77;5.30;;;;;;;10.54;80.71;101271.00;5015724;28;20093;-61
2022/05/25 03:37:33;;;;;;;8.18;5.53;;;;;;;10.45;80.98;101271.75;5033496;28;20037;-61
2022/05/25 03:39:58;;;;;;;8.88;5.57;;;;;;;10.42;81.28;101273.44;5033200;28;20504;-61
2022/05/25 03:42:24;;;;;;;8.45;5.50;;;;;;;10.37;81.68;101276.00;5033056;28;20471;-62
2022/05/25 03:44:53;;;;;;;6.80;4.97;;;;;;;10.38;81.11;101279.53;5033162;28;20021;-62
2022/05/25 03:47:18;;;;;;;8.38;5.18;;;;;;;10.44;80.80;101282.25;5033247;28;20053;-62
2022/05/25 03:49:44;;;;;;;9.38;4.95;;;;;;;10.48;81.02;101295.56;5032946;28;20018;-62
2022/05/25 03:52:10;;;;;;;7.55;4.70;;;;;;;10.51;80.67;101292.97;5033073;28;20033;-61
2022/05/25 03:54:37;;;;;;;9.57;4.82;;;;;;;10.54;80.44;101292.16;5033058;28;20033;-62
2022/05/25 03:57:06;;;;;;;7.43;4.40;;;;;;;10.55;80.11;101299.22;5032906;28;20088;-61
2022/05/25 03:59:31;;;;;;;9.48;4.65;;;;;;;10.52;80.61;101302.69;5032870;28;20030;-61
2022/05/25 04:01:57;;;;;;;9.23;5.00;;;;;;;10.58;80.04;101296.63;5032520;28;20088;-61
2022/05/25 04:04:26;;;;;;;9.90;4.70;;;;;;;10.58;80.28;101299.28;5032651;28;20026;-61
2022/05/25 04:06:51;;;;;;;9.40;4.90;;;;;;;10.55;81.08;101301.84;5032671;28;20026;-62
2022/05/25 04:09:16;;;;;;;8.55;4.55;;;;;;;10.50;80.98;101308.81;5032826;28;20056;-62
2022/05/25 04:11:42;;;;;;;13.00;5.00;;;;;;;10.44;80.96;101306.03;5032881;28;20133;-62
2022/05/25 04:14:08;;;;;;;9.63;4.82;;;;;;;10.37;81.36;101310.34;5032760;28;20108;-62
2022/05/25 04:16:34;;;;;;;7.57;4.63;;;;;;;10.34;81.59;101306.75;5032637;28;20099;-62
2022/05/25 04:19:00;;;;;;;13.43;4.75;;;;;;;10.36;82.10;101312.94;5032443;28;20096;-61
2022/05/25 04:21:26;;;;;;;7.95;4.55;;;;;;;10.27;82.36;101289.88;5031926;28;20403;-62
2022/05/25 04:23:51;;;;;;;9.38;4.57;;;;;;;10.38;81.96;101308.59;5032463;28;20100;-62
2022/05/25 04:26:17;;;;;;;14.10;4.75;;;;;;;10.44;81.71;101312.22;5032660;28;20100;-61
2022/05/25 04:28:42;;;;;;;9.43;4.20;;;;;;;10.51;81.44;101306.19;5032695;28;20030;-61
2022/05/25 04:31:08;;;;;;;7.50;4.80;;;;;;;10.55;81.75;101317.72;5032569;28;20033;-61
2022/05/25 04:33:35;;;;;;;7.07;4.93;;;;;;;10.54;81.75;101313.28;5032509;28;20029;-62
2022/05/25 04:36:01;;;;;;;11.25;4.60;;;;;;;10.57;81.65;101315.09;5032490;28;20110;-62
2022/05/25 04:38:26;;;;;;;7.72;4.57;;;;;;;10.62;81.69;101316.97;5034410;28;20064;-62
2022/05/25 04:40:52;;;;;;;9.38;4.75;;;;;;;10.64;82.03;101317.00;5035480;28;20113;-61
2022/05/25 04:43:21;;;;;;;9.68;4.40;;;;;;;10.74;81.63;101317.16;5033007;28;20379;-61
2022/05/25 04:45:49;;;;;;;11.95;4.97;;;;;;;10.77;81.50;101321.63;5015068;28;20116;-62
2022/05/25 04:48:16;;;;;;;8.73;4.75;;;;;;;10.72;81.30;101318.00;5032299;28;20034;-61
2022/05/25 04:50:44;;;;;;;12.02;4.72;;;;;;;10.70;81.63;101323.25;5032416;28;20022;-61
2022/05/25 04:53:12;;;;;;;9.90;4.32;;;;;;;10.74;82.19;101319.81;5032440;28;20459;-62
2022/05/25 04:58:27;;;;;;;7.47;4.35;;;;;;;10.83;82.03;101329.66;5032694;28;20156;-61
2022/05/25 05:00:53;;;;;;;8.90;4.30;;;;;;;10.91;81.43;101328.03;5032018;28;20029;-62
2022/05/25 05:03:20;;;;;;;7.38;4.07;;;;;;;10.94;81.24;101333.38;5032389;28;20033;-61
2022/05/25 05:05:46;;;;;;;10.30;4.38;;;;;;;10.97;81.97;101341.38;5032267;28;20049;-62
2022/05/25 05:08:12;;;;;;;10.57;4.32;;;;;;;11.01;81.55;101334.38;5032268;28;20088;-62
2022/05/25 05:10:37;;;;;;;14.43;5.00;;;;;;;11.09;81.32;101332.75;5032294;28;20030;-62
2022/05/25 05:13:04;;;;;;;9.00;4.40;;;;;;;11.13;81.49;101338.97;5032428;28;20032;-62
2022/05/25 05:15:40;;;;;;;11.70;4.63;;;;;;;11.21;81.56;101339.97;5032007;28;20026;-63
2022/05/25 05:18:05;;;;;;;8.35;4.80;;;;;;;11.29;81.79;101344.53;5032181;28;20029;-62
2022/05/25 05:20:31;;;;;;;7.43;4.28;;;;;;;11.43;80.96;101336.78;5032224;28;20462;-61
2022/05/25 05:22:56;;;;;;;8.57;4.30;;;;;;;11.54;80.19;101339.63;5014279;28;20100;-61
2022/05/25 05:25:22;;;;;;;10.38;4.30;;;;;;;11.66;79.83;101341.56;5032160;28;20025;-62
2022/05/25 05:27:47;;;;;;;11.38;4.68;;;;;;;11.80;79.92;101334.69;5032061;28;20025;-62
2022/05/25 05:30:20;;;;;;;7.82;4.28;;;;;;;11.74;79.85;101329.31;5032100;28;20038;-61
2022/05/25 05:32:46;;;;;;;10.68;4.80;;;;;;;11.78;79.58;101328.50;5032541;28;20115;-61
2022/05/25 05:35:12;;;;;;;10.10;4.70;;;;;;;11.88;79.61;101325.13;5035909;28;20076;-61
2022/05/25 05:37:45;;;;;;;12.23;4.45;;;;;;;11.99;79.30;101327.91;5035571;28;20493;-61
2022/05/25 05:40:12;;;;;;;13.35;4.40;;;;;;;12.10;78.80;101318.34;5035788;28;20033;-61
2022/05/25 05:42:39;;;;;;;9.75;4.45;;;;;;;12.07;78.78;101322.69;5035532;28;20498;-62
2022/05/25 05:45:10;;;;;;;8.65;4.75;;;;;;;12.17;78.68;101324.63;5035460;28;20459;-61
2022/05/25 05:47:52;;;;;;;9.10;4.60;;;;;;;12.21;78.46;101311.41;5035464;28;20022;-61
2022/05/25 05:50:20;;;;;;;11.82;4.47;;;;;;;12.34;78.20;101315.09;5017756;28;20435;-62
2022/05/25 05:52:47;;;;;;;11.55;5.47;;;;;;;12.45;77.73;101315.19;5035408;28;20036;-64
2022/05/25 05:55:13;;;;;;;12.43;5.28;;;;;;;12.58;77.64;101310.91;5035485;28;20391;-61
2022/05/25 05:57:38;;;;;;;10.75;5.00;;;;;;;12.68;77.15;101307.50;5035305;28;20029;-61
2022/05/25 06:00:06;;;;;;;12.32;5.50;;;;;;;12.76;77.00;101326.97;5035224;28;20037;-61
2022/05/25 06:02:32;;;;;;;9.38;4.70;;;;;;;12.88;76.59;101329.75;5034971;28;20025;-61
2022/05/25 06:04:57;;;;;;;10.65;4.75;;;;;;;12.86;75.50;101314.72;5035478;28;20467;-61
2022/05/25 06:07:22;;;;;;;11.35;5.43;;;;;;;12.92;76.09;101322.72;5035225;28;20033;-61
2022/05/25 06:09:48;;;;;;;10.55;5.10;;;;;;;13.02;76.11;101325.47;5035015;28;20383;-61
2022/05/25 06:12:14;;;;;;;10.38;5.00;;;;;;;13.14;76.22;101329.97;5035146;28;20029;-61
2022/05/25 06:14:40;;;;;;;11.57;5.38;;;;;;;13.19;76.02;101330.94;5034959;28;20029;-61
2022/05/25 06:19:49;;;;;;;12.32;5.50;;;;;;;13.40;75.16;101343.47;5035059;28;20084;-61
2022/05/25 06:22:18;;;;;;;13.18;5.45;;;;;;;13.49;74.72;101348.88;5035028;28;20424;-61
2022/05/25 06:24:46;;;;;;;9.13;5.20;;;;;;;13.72;74.71;101348.13;5035005;28;20479;-60
2022/05/25 06:27:13;;;;;;;11.50;5.57;;;;;;;13.83;73.76;101356.13;5034812;28;20018;-61
2022/05/25 06:29:43;;;;;;;10.68;5.22;;;;;;;13.89;73.67;101353.53;5034863;28;20039;-61
2022/05/25 06:32:10;;;;;;;9.73;5.35;;;;;;;13.86;72.84;101354.38;5017014;28;20034;-60
2022/05/25 06:34:37;;;;;;;11.40;5.43;;;;;;;13.83;73.59;101357.00;5034651;28;20068;-61
2022/05/25 06:37:04;;;;;;;10.98;5.55;;;;;;;13.94;73.13;101352.66;5034484;28;20041;-61
2022/05/25 06:39:34;;;;;;;12.27;6.20;;;;;;;14.05;73.33;101366.03;5034853;28;20026;-61
2022/05/25 06:42:00;;;;;;;10.63;6.63;;;;;;;14.13;72.17;101364.28;5034625;28;20033;-60
2022/05/25 06:44:25;;;;;;;14.43;6.40;;;;;;;14.13;72.86;101369.59;5034008;28;20538;-61
2022/05/25 06:46:51;;;;;;;12.35;7.03;;;;;;;14.08;72.00;101365.13;5034128;28;20104;-61
2022/05/25 06:49:17;;;;;;;13.20;7.32;;;;;;;14.07;72.61;101372.22;5034552;28;20497;-61
2022/05/25 06:51:43;;;;;;;11.45;7.45;;;;;;;14.15;71.85;101370.47;5034510;28;20029;-61
2022/05/25 06:54:09;;;;;;;12.60;8.10;;;;;;;14.25;71.66;101368.75;5034293;28;20022;-61
2022/05/25 06:56:35;;;;;;;12.45;9.18;;;;;;;14.33;71.25;101361.69;5034193;28;20032;-60
2022/05/25 06:59:01;;;;;;;13.68;9.65;;;;;;;14.41;71.32;101370.59;5034237;28;20536;-60
2022/05/25 07:01:27;;;;;;;17.02;10.48;;;;;;;14.53;71.47;101370.66;5034072;28;20025;-60
2022/05/25 07:03:52;;;;;;;14.05;9.35;;;;;;;14.73;71.22;101375.13;5034097;28;20479;-60
2022/05/25 07:06:19;;;;;;;14.07;10.05;;;;;;;14.82;70.28;101382.22;5034066;28;20053;-61
2022/05/25 07:08:45;;;;;;;13.15;8.73;;;;;;;15.03;69.68;101383.19;5034004;28;20467;-60
2022/05/25 07:11:12;;;;;;;14.68;8.38;;;;;;;15.27;68.65;101376.97;5033866;28;20121;-60
2022/05/25 07:13:38;;;;;;;14.00;8.60;;;;;;;15.44;68.37;101381.41;5033949;28;20025;-60
2022/05/25 07:16:07;;;;;;;12.27;8.18;;;;;;;15.47;67.55;101386.75;5033906;28;20025;-60
2022/05/25 07:18:34;;;;;;;12.80;8.00;;;;;;;15.40;67.37;101390.28;5033644;28;20116;-60
2022/05/25 07:21:20;;;;;;;11.85;7.00;;;;;;;15.49;68.42;101396.47;5033855;28;20470;-60
2022/05/25 07:23:48;;;;;;;13.52;7.35;;;;;;;15.80;67.31;101400.91;5033765;28;20025;-61
2022/05/25 07:26:15;;;;;;;11.68;6.78;;;;;;;15.91;66.05;101397.34;5033852;28;20075;-61
2022/05/25 07:28:41;;;;;;;10.63;6.57;;;;;;;16.07;65.65;101405.31;5033878;28;20029;-60
2022/05/25 07:31:10;;;;;;;12.45;6.78;;;;;;;16.05;66.56;101399.97;5033806;28;20379;-61
2022/05/25 07:33:39;;;;;;;15.48;6.63;;;;;;;16.35;65.62;101400.75;5033726;28;20386;-61
2022/05/25 07:36:06;;;;;;;12.52;7.03;;;;;;;16.43;64.40;101404.28;5033605;28;20029;-61
2022/05/25 07:38:32;;;;;;;12.00;6.50;;;;;;;16.49;64.82;101404.28;5033447;28;20037;-61
2022/05/25 07:40:59;;;;;;;11.13;5.88;;;;;;;16.37;64.63;101396.31;5033622;28;20029;-60
2022/05/25 07:43:27;;;;;;;11.30;6.85;;;;;;;16.18;64.75;101406.16;5033547;28;20026;-61
2022/05/25 07:45:53;;;;;;;11.43;6.60;;;;;;;16.27;64.93;101399.03;5033391;28;20033;-61
2022/05/25 07:48:18;;;;;;;13.10;7.20;;;;;;;16.35;64.70;101403.41;5033407;28;20111;-61
2022/05/25 07:50:44;;;;;;;11.55;6.45;;;;;;;16.45;64.23;101405.19;5033326;28;20061;-61
2022/05/25 07:56:00;;;;;;;11.63;6.70;;;;;;;16.95;62.54;101410.25;5033415;28;20123;-61
2022/05/25 07:58:26;;;;;;;11.07;6.88;;;;;;;17.15;62.65;101412.78;5033212;28;20041;-61
2022/05/25 08:00:54;;;;;;;12.98;6.85;;;;;;;17.38;63.26;101403.69;5033082;28;20029;-60
2022/05/25 08:06:05;;;;;;;10.15;5.80;;;;;;;17.62;60.26;101398.16;5033329;28;20095;-61
2022/05/25 08:08:31;;;;;;;10.38;5.82;;;;;;;17.88;60.44;101405.06;5032903;28;20026;-61
2022/05/25 08:11:03;;;;;;;9.13;5.28;;;;;;;17.81;59.19;101409.56;5032981;28;20036;-61
2022/05/25 08:13:30;;;;;;;12.05;5.40;;;;;;;17.90;59.41;101414.84;5032886;28;20072;-61
2022/05/25 08:15:55;;;;;;;8.98;5.32;;;;;;;17.95;59.51;101415.69;5033031;28;20048;-61
2022/05/25 08:18:21;;;;;;;6.90;4.60;;;;;;;18.13;58.23;101419.94;5032634;28;20351;-61
2022/05/25 08:20:47;;;;;;;9.18;4.70;;;;;;;17.96;58.28;101424.59;5032961;28;20029;-61
2022/05/25 08:23:14;;;;;;;8.35;4.50;;;;;;;18.01;58.76;101418.28;5032775;28;20510;-61
2022/05/25 08:25:40;;;;;;;10.02;4.45;;;;;;;18.07;57.49;101421.78;5032815;28;20029;-61
2022/05/25 08:28:06;;;;;;;8.98;4.40;;;;;;;18.12;58.01;101419.97;5032886;28;20025;-61
2022/05/25 08:30:33;;;;;;;9.32;4.57;;;;;;;18.19;58.02;101410.94;5032773;28;20032;-61
2022/05/25 08:32:59;;;;;;;6.90;4.30;;;;;;;18.18;57.28;101419.88;5032485;28;20534;-61
2022/05/25 08:35:27;;;;;;;8.90;4.43;;;;;;;18.37;57.48;101407.16;5032629;28;20108;-61
2022/05/25 08:37:53;;;;;;;8.50;4.20;;;;;;;18.51;56.14;101413.25;5032880;28;20032;-61
2022/05/25 08:40:22;;;;;;;8.20;4.25;;;;;;;18.56;57.13;101397.13;5032663;28;20040;-61
2022/05/25 08:42:55;;;;;;;12.63;4.55;;;;;;;18.71;57.62;101400.53;5032820;28;20033;-61
2022/05/25 08:45:24;;;;;;;7.15;3.90;;;;;;;18.94;55.57;101397.50;5032644;28;20026;-61
2022/05/25 08:47:56;;;;;;;11.52;4.00;;;;;;;19.14;56.46;101407.00;5033056;28;20033;-61
2022/05/25 08:50:22;;;;;;;7.25;3.80;;;;;;;19.19;55.49;101397.13;5032590;28;20026;-61
2022/05/25 08:52:48;;;;;;;8.73;3.80;;;;;;;19.20;54.82;101394.41;5032620;28;20033;-61
2022/05/25 08:55:27;;;;;;;8.38;4.03;;;;;;;19.37;54.49;101412.91;5032477;28;20096;-60
2022/05/25 08:57:57;;;;;;;8.35;3.50;;;;;;;19.57;53.42;101393.81;5032591;28;20497;-61
2022/05/25 09:00:23;;;;;;;8.40;3.13;;;;;;;19.80;51.30;101397.88;5032622;28;20023;-61
2022/05/25 09:03:12;;;;;;;5.35;3.30;;;;;;;19.97;52.55;101393.09;5032441;28;20026;-61
2022/05/25 09:05:48;;;;;;;8.82;3.10;;;;;;;19.76;50.92;101403.31;5032449;28;20390;-61
2022/05/25 09:08:26;;;;;;;6.25;3.13;;;;;;;19.83;51.22;101397.81;5033354;28;20172;-61
2022/05/25 09:11:01;;;;;;;6.28;3.13;;;;;;;20.12;50.82;101392.78;5036216;28;20148;-61
2022/05/25 09:13:42;;;;;;;8.27;3.72;;;;;;;19.94;50.18;101399.38;5036473;28;20060;-61
2022/05/25 09:16:15;;;;;;;9.75;2.70;;;;;;;19.70;47.73;101403.44;5037006;28;20416;-61
2022/05/25 09:18:51;;;;;;;5.55;2.80;;;;;;;19.71;49.06;101401.63;5038203;28;20038;-61
2022/05/25 09:21:21;;;;;;;6.53;2.90;;;;;;;19.54;50.06;101409.06;5037225;28;20029;-60
2022/05/25 09:23:47;;;;;;;9.55;2.85;;;;;;;19.71;50.52;101399.81;5035656;28;20026;-61
2022/05/25 09:26:13;;;;;;;8.65;2.67;;;;;;;20.07;48.57;101404.50;5035561;28;20546;-61
2022/05/25 09:28:43;;;;;;;5.88;2.63;;;;;;;19.92;47.83;101400.34;5035797;28;20033;-61
2022/05/25 09:31:13;;;;;;;4.05;2.70;;;;;;;19.97;49.03;101417.22;5035849;28;20033;-61
2022/05/25 09:33:49;;;;;;;4.85;2.50;;;;;;;19.85;49.20;101417.47;5018210;28;20033;-61
2022/05/25 09:36:22;;;;;;;4.60;2.50;;;;;;;19.77;48.79;101420.28;5035790;28;20029;-61
2022/05/25 09:39:04;;;;;;;6.35;2.65;;;;;;;19.65;49.60;101420.47;5036003;28;20025;-61
2022/05/25 09:41:31;;;;;;;4.03;2.20;;;;;;;19.85;48.45;101418.34;5035669;28;20021;-61
2022/05/25 09:43:59;;;;;;;5.20;2.00;;;;;;;19.97;46.65;101414.56;5035693;28;20025;-61
2022/05/25 09:46:30;;;;;;;3.63;1.90;;;;;;;19.88;47.09;101425.47;5035611;28;20033;-62
2022/05/25 09:49:07;;;;;;;7.80;2.00;;;;;;;19.75;47.31;101414.94;5035589;28;20391;-60
2022/05/25 09:51:50;;;;;;;3.47;1.92;;;;;;;19.64;45.45;101421.41;5035600;28;20517;-60
2022/05/25 09:54:30;;;;;;;6.03;1.73;;;;;;;19.42;46.81;101419.06;5035424;28;20037;-61
2022/05/25 09:57:09;;;;;;;5.47;2.05;;;;;;;19.10;47.26;101419.59;5035399;28;20026;-61
2022/05/25 09:59:43;;;;;;;5.50;1.80;;;;;;;19.48;47.12;101423.41;5035836;28;20498;-61
2022/05/25 10:02:34;;;;;;;3.72;1.70;;;;;;;19.63;46.60;101428.56;5035201;28;20044;-61
2022/05/25 10:05:23;;;;;;;5.40;1.83;;;;;;;20.20;46.24;101432.88;5035297;28;20112;-61
2022/05/25 10:08:08;;;;;;;7.82;1.75;;;;;;;20.63;45.38;101426.66;5035654;28;20116;-61
2022/05/25 10:10:56;;;;;;;3.45;1.77;;;;;;;20.77;43.81;101435.31;5017368;28;20474;-61
2022/05/25 10:13:25;;;;;;;4.70;1.80;;;;;;;20.68;43.29;101439.06;5027861;28;20029;-61
2022/05/25 10:15:51;;;;;;;3.15;1.65;;;;;;;20.55;43.00;101439.34;5017154;28;20132;-62
2022/05/25 10:18:34;;;;;;;3.33;1.90;;;;;;;20.41;44.55;101436.94;5016980;28;20080;-61
2022/05/25 10:21:01;;;;;;;4.00;1.70;;;;;;;20.57;43.24;101419.63;5033388;28;20092;-61
2022/05/25 10:23:27;;;;;;;5.72;1.90;;;;;;;20.60;42.46;101429.41;5034860;28;20025;-61
2022/05/25 10:25:53;;;;;;;6.63;2.28;;;;;;;20.39;43.76;101428.03;5034849;28;20036;-61
2022/05/25 10:28:18;;;;;;;6.57;1.85;;;;;;;20.18;44.77;101440.09;5034599;28;20108;-61
2022/05/25 10:39:23;;;;;;;5.82;1.77;;;;;;;20.54;43.69;101419.69;5034744;28;20111;-61
2022/05/25 10:42:01;;;;;;;6.60;1.60;;;;;;;20.52;42.22;101416.16;5034557;28;20099;-61
2022/05/25 10:44:32;;;;;;;3.83;1.58;;;;;;;20.46;42.03;101413.56;5034638;28;20033;-61
2022/05/25 10:46:58;;;;;;;5.07;1.63;;;;;;;20.48;41.94;101406.41;5034447;28;20029;-61
2022/05/25 10:49:32;;;;;;;2.55;1.50;;;;;;;20.34;42.53;101406.66;5034551;28;20068;-61
2022/05/25 10:52:05;;;;;;;5.22;1.70;;;;;;;20.24;42.43;101411.31;5034524;28;20057;-62
2022/05/25 10:54:45;;;;;;;6.60;1.65;;;;;;;20.01;41.97;101410.91;5034380;28;20096;-61
2022/05/25 10:57:38;;;;;;;2.88;1.63;;;;;;;19.89;43.61;101413.81;5034542;28;20030;-61
2022/05/25 11:00:07;;;;;;;4.22;1.70;;;;;;;19.58;42.75;101413.44;5034203;28;20033;-63
2022/05/25 11:03:09;;;;;;;2.47;1.40;;;;;;;19.50;43.76;101419.81;5034205;28;20343;-62
2022/05/25 11:05:46;;;;;;;4.40;1.80;;;;;;;19.95;43.50;101409.19;5034257;28;20030;-61
2022/05/25 11:08:39;;;;;;;5.82;1.95;;;;;;;20.22;42.72;101407.78;5034183;28;20423;-62
2022/05/25 11:11:20;;;;;;;4.32;1.88;;;;;;;20.18;43.05;101424.00;5034101;28;20026;-61
2022/05/25 11:13:59;;;;;;;4.55;1.80;;;;;;;19.94;42.61;101430.69;5034262;28;20390;-62
2022/05/25 11:16:36;;;;;;;3.63;1.70;;;;;;;19.75;43.56;101416.75;5034085;28;20136;-62
2022/05/25 11:19:16;;;;;;;6.95;1.63;;;;;;;19.97;43.29;101418.13;5033723;28;20049;-62
2022/05/25 11:22:03;;;;;;;4.63;1.60;;;;;;;20.38;43.28;101418.19;5033885;28;20087;-62
2022/05/25 11:25:01;;;;;;;5.60;1.67;;;;;;;20.97;42.53;101406.16;5033829;28;20087;-62
2022/05/25 11:27:36;;;;;;;5.72;1.80;;;;;;;21.33;39.69;101400.88;5033682;28;20033;-62
2022/05/25 11:30:04;;;;;;;4.40;1.73;;;;;;;21.36;40.17;101391.84;5033706;28;20088;-62
2022/05/25 11:32:41;;;;;;;2.45;1.48;;;;;;;21.59;40.28;101394.84;5033622;28;20033;-62
2022/05/25 11:35:11;;;;;;;4.70;1.90;;;;;;;21.84;41.38;101400.47;5033610;28;20025;-61
2022/05/25 11:37:47;;;;;;;10.20;1.70;;;;;;;22.02;38.18;101391.00;5033538;28;20029;-62
2022/05/25 11:40:34;;;;;;;5.82;1.75;;;;;;;22.19;38.85;101387.84;5033693;28;20056;-62
2022/05/25 11:43:19;;;;;;;3.63;1.65;;;;;;;22.36;38.13;101382.84;5033377;28;20116;-62
2022/05/25 11:45:57;;;;;;;3.40;1.60;;;;;;;22.54;37.39;101380.53;5033472;28;20112;-62
2022/05/25 11:48:28;;;;;;;8.18;1.85;;;;;;;22.12;36.77;101395.19;5033264;28;20033;-62
2022/05/25 11:51:19;;;;;;;4.95;1.75;;;;;;;22.17;39.15;101382.50;5033426;28;20025;-62
2022/05/25 11:54:30;;;;;;;5.75;1.83;;;;;;;21.90;37.01;101386.81;5033341;28;20064;-61
2022/05/25 11:57:02;;;;;;;5.72;2.00;;;;;;;21.67;39.20;101381.16;5029310;28;20483;-62
2022/05/25 11:59:48;;;;;;;6.83;1.90;;;;;;;21.54;39.12;101385.09;5033604;28;20125;-61
2022/05/25 12:02:35;;;;;;;5.93;2.30;;;;;;;21.37;39.16;101389.13;5033108;28;20030;-62
2022/05/25 12:05:03;;;;;;;5.00;1.83;;;;;;;21.25;38.76;101394.78;5033122;28;20034;-64